Time;durP1;ratioP1;P1;durP2;ratioP2;P2;SDS_P1;SDS_P2;PMS_P1;PMS_P2;Temp;Humidity;BMP_temperature;BMP_pressure;BME280_temperature;BME280_humidity;BME280_pressure;Samples;Min_cycle;Max_cycle;Signal;HPM_P1;HPM_P2
2022/05/19 00:03:25;;;;;;;17.65;14.30;;;18.90;99.90;;;;;;5081321;28;20040;-63
2022/05/19 00:05:50;;;;;;;20.08;15.93;;;18.90;99.90;;;;;;5082991;28;20411;-63
2022/05/19 00:08:16;;;;;;;19.90;13.15;;;18.90;99.90;;;;;;5083601;28;20028;-63
2022/05/19 00:10:42;;;;;;;21.58;15.45;;;18.90;99.90;;;;;;5081078;28;20386;-64
2022/05/19 00:13:08;;;;;;;21.85;16.98;;;18.80;99.90;;;;;;5088150;28;20047;-63
2022/05/19 00:15:34;;;;;;;20.67;15.35;;;18.80;99.90;;;;;;5088161;28;20455;-63
2022/05/19 00:17:59;;;;;;;17.33;14.98;;;18.80;99.90;;;;;;5082791;28;20087;-63
2022/05/19 00:20:25;;;;;;;20.08;16.00;;;18.80;99.90;;;;;;5087159;28;20115;-64
2022/05/19 00:22:51;;;;;;;18.73;15.70;;;18.70;99.90;;;;;;5084131;28;20128;-64
2022/05/19 00:25:16;;;;;;;17.77;13.98;;;18.70;99.90;;;;;;5080209;28;20044;-65
2022/05/19 00:27:42;;;;;;;21.63;15.73;;;18.70;99.90;;;;;;5083091;28;20079;-66
2022/05/19 00:30:08;;;;;;;19.88;16.58;;;18.60;99.90;;;;;;5085327;28;20525;-66
2022/05/19 00:32:34;;;;;;;25.42;21.20;;;18.50;99.90;;;;;;5079716;28;20037;-65
2022/05/19 00:34:59;;;;;;;22.95;19.45;;;18.50;99.90;;;;;;5086276;28;20520;-66
2022/05/19 00:37:25;;;;;;;22.95;19.42;;;18.40;99.90;;;;;;5080772;28;20765;-66
2022/05/19 00:39:50;;;;;;;22.98;18.90;;;18.40;99.90;;;;;;5078149;28;20693;-65
2022/05/19 00:45:01;;;;;;;24.00;17.70;;;18.30;99.90;;;;;;5085163;28;20342;-65
2022/05/19 00:47:33;;;;;;;22.08;16.10;;;18.30;99.90;;;;;;5083221;28;20416;-65
2022/05/19 00:49:58;;;;;;;21.55;16.33;;;18.20;99.90;;;;;;5081081;28;20051;-65
2022/05/19 00:52:42;;;;;;;19.63;16.63;;;18.30;99.90;;;;;;5081330;28;20040;-64
2022/05/19 00:55:14;;;;;;;21.52;16.65;;;18.30;99.90;;;;;;5082057;28;20448;-65
2022/05/19 00:57:51;;;;;;;22.48;17.65;;;18.30;99.90;;;;;;5080128;28;20374;-66
2022/05/19 01:00:20;;;;;;;23.10;17.38;;;18.30;99.90;;;;;;5077201;28;20052;-66
2022/05/19 01:02:53;;;;;;;22.05;17.15;;;18.30;99.90;;;;;;5079302;28;20063;-65
2022/05/19 01:05:40;;;;;;;22.55;16.95;;;18.30;99.90;;;;;;5075807;28;20052;-65
2022/05/19 01:08:16;;;;;;;20.10;16.83;;;18.30;99.90;;;;;;5076881;28;20063;-65
2022/05/19 01:10:43;;;;;;;19.85;17.13;;;18.20;99.90;;;;;;5076514;28;20397;-64
2022/05/19 01:13:11;;;;;;;21.55;16.90;;;18.20;99.90;;;;;;5081005;28;20115;-65
2022/05/19 01:15:40;;;;;;;20.70;17.13;;;18.20;99.90;;;;;;5079719;28;20044;-66
2022/05/19 01:18:07;;;;;;;19.52;15.65;;;18.20;99.90;;;;;;5076340;28;20043;-64
2022/05/19 01:20:34;;;;;;;20.95;17.20;;;18.20;99.90;;;;;;5076200;28;20040;-67
2022/05/19 01:23:18;;;;;;;21.98;17.08;;;18.20;99.90;;;;;;5081967;28;20062;-66
2022/05/19 01:26:11;;;;;;;22.38;17.05;;;18.20;99.90;;;;;;5079156;28;20056;-65
2022/05/19 01:28:36;;;;;;;21.45;17.45;;;18.10;99.90;;;;;;5076790;28;20044;-65
2022/05/19 01:31:02;;;;;;;21.17;16.77;;;18.10;99.90;;;;;;5080472;28;20041;-68
2022/05/19 01:33:28;;;;;;;19.85;16.73;;;18.10;99.90;;;;;;5081594;28;20048;-66
2022/05/19 01:35:53;;;;;;;21.83;16.95;;;18.00;99.90;;;;;;5084036;28;20181;-64
2022/05/19 01:38:33;;;;;;;20.10;17.65;;;18.00;99.90;;;;;;5082704;28;20108;-65
2022/05/19 01:41:20;;;;;;;23.45;17.70;;;18.00;99.90;;;;;;5079256;28;20048;-67
2022/05/19 01:44:14;;;;;;;21.52;16.83;;;17.90;99.90;;;;;;5077134;28;20046;-66
2022/05/19 01:46:43;;;;;;;23.98;19.48;;;17.90;99.90;;;;;;5079162;28;20217;-64
2022/05/19 01:49:35;;;;;;;27.40;19.60;;;17.90;99.90;;;;;;5080159;28;20056;-64
2022/05/19 01:52:21;;;;;;;23.25;19.02;;;17.90;99.90;;;;;;5081353;28;20118;-64
2022/05/19 01:55:05;;;;;;;22.45;18.70;;;17.90;99.90;;;;;;5085939;28;20040;-66
2022/05/19 01:57:53;;;;;;;23.73;19.27;;;17.80;99.90;;;;;;5079840;28;20445;-64
2022/05/19 02:00:25;;;;;;;22.48;18.20;;;17.80;99.90;;;;;;5080063;28;20063;-65
2022/05/19 02:03:22;;;;;;;25.63;18.92;;;17.80;99.90;;;;;;5079898;28;20462;-64
2022/05/19 02:06:02;;;;;;;21.98;18.60;;;17.70;99.90;;;;;;5082248;28;20052;-66
2022/05/19 02:08:33;;;;;;;27.05;18.50;;;17.70;99.90;;;;;;5082483;28;20155;-64
2022/05/19 02:11:01;;;;;;;26.38;18.65;;;17.70;99.90;;;;;;5087560;28;20047;-65
2022/05/19 02:13:30;;;;;;;23.42;19.00;;;17.70;99.90;;;;;;5084586;28;20079;-65
2022/05/19 02:15:58;;;;;;;22.17;18.90;;;17.70;99.90;;;;;;5079832;28;20858;-64
2022/05/19 02:18:25;;;;;;;22.15;18.23;;;17.70;99.90;;;;;;5075443;28;20118;-64
2022/05/19 02:20:53;;;;;;;26.35;19.73;;;17.60;99.90;;;;;;5088110;28;20068;-64
2022/05/19 02:23:19;;;;;;;22.35;18.70;;;17.70;99.90;;;;;;5083446;28;20056;-65
2022/05/19 02:25:49;;;;;;;25.55;19.90;;;17.70;99.90;;;;;;5083228;28;20129;-64
2022/05/19 02:28:26;;;;;;;21.45;18.90;;;17.60;99.90;;;;;;5086642;28;20041;-65
2022/05/19 02:30:54;;;;;;;24.00;19.40;;;17.60;99.90;;;;;;5085831;28;20058;-64
2022/05/19 02:33:21;;;;;;;25.52;20.40;;;17.60;99.90;;;;;;5085484;28;20051;-64
2022/05/19 02:35:47;;;;;;;21.83;18.15;;;17.60;99.90;;;;;;5082724;28;20477;-64
2022/05/19 02:38:14;;;;;;;24.88;18.77;;;17.50;99.90;;;;;;5084475;28;20109;-64
2022/05/19 02:40:41;;;;;;;24.55;19.73;;;17.50;99.90;;;;;;5081285;28;20063;-64
2022/05/19 02:43:08;;;;;;;23.75;20.80;;;17.50;99.90;;;;;;5086749;28;20320;-65
2022/05/19 02:45:34;;;;;;;25.88;20.38;;;17.50;99.90;;;;;;5084403;28;20473;-65
2022/05/19 02:48:00;;;;;;;25.25;21.27;;;17.40;99.90;;;;;;5086456;28;20044;-67
2022/05/19 02:50:26;;;;;;;23.40;19.67;;;17.50;99.90;;;;;;5082417;28;20051;-65
2022/05/19 02:52:52;;;;;;;26.45;21.13;;;17.50;99.90;;;;;;5081549;28;20066;-65
2022/05/19 02:55:18;;;;;;;24.75;20.58;;;17.50;99.90;;;;;;5084013;28;20553;-65
2022/05/19 02:57:44;;;;;;;25.58;20.50;;;17.50;99.90;;;;;;5086003;28;20047;-65
2022/05/19 03:00:13;;;;;;;27.42;21.70;;;17.40;99.90;;;;;;5077733;28;20048;-65
2022/05/19 03:02:43;;;;;;;27.15;21.83;;;17.40;99.90;;;;;;5085364;28;20039;-65
2022/05/19 03:05:11;;;;;;;25.83;21.80;;;17.40;99.90;;;;;;5082731;28;20032;-65
2022/05/19 03:07:37;;;;;;;24.45;20.67;;;17.40;99.90;;;;;;5084850;28;20115;-68
2022/05/19 03:10:04;;;;;;;23.10;19.80;;;17.40;99.90;;;;;;5088805;28;20440;-67
2022/05/19 03:12:30;;;;;;;24.85;20.05;;;17.40;99.90;;;;;;5078526;28;20384;-65
2022/05/19 03:14:55;;;;;;;23.40;19.83;;;17.40;99.90;;;;;;5084860;28;20033;-65
2022/05/19 03:17:21;;;;;;;25.88;21.20;;;17.40;99.90;;;;;;5079158;28;20097;-65
2022/05/19 03:19:47;;;;;;;25.30;21.67;;;17.40;99.90;;;;;;5084260;28;20037;-65
2022/05/19 03:22:12;;;;;;;25.98;22.15;;;17.30;99.90;;;;;;5081011;28;20044;-66
2022/05/19 03:24:38;;;;;;;25.70;21.67;;;17.30;99.90;;;;;;5086030;28;20048;-66
2022/05/19 03:27:05;;;;;;;27.42;22.35;;;17.30;99.90;;;;;;5084191;28;20458;-65
2022/05/19 03:29:31;;;;;;;26.88;23.60;;;17.30;99.90;;;;;;5088852;28;20095;-64
2022/05/19 03:31:59;;;;;;;24.35;21.23;;;17.30;99.90;;;;;;5085462;28;20117;-65
2022/05/19 03:34:25;;;;;;;25.35;21.42;;;17.30;99.90;;;;;;5088291;28;20154;-66
2022/05/19 03:36:50;;;;;;;28.65;22.70;;;17.30;99.90;;;;;;5079891;28;20120;-65
2022/05/19 03:39:16;;;;;;;24.98;20.95;;;17.20;99.90;;;;;;5083779;28;20048;-64
2022/05/19 03:41:42;;;;;;;26.70;22.20;;;17.20;99.90;;;;;;5088511;28;20058;-66
2022/05/19 03:44:07;;;;;;;26.60;22.73;;;17.20;99.90;;;;;;5086042;28;20044;-65
2022/05/19 03:46:33;;;;;;;31.67;24.13;;;17.20;99.90;;;;;;5087273;28;20047;-65
2022/05/19 03:48:59;;;;;;;28.88;23.45;;;17.20;99.90;;;;;;5078430;28;20048;-66
2022/05/19 03:51:28;;;;;;;28.60;23.35;;;17.20;99.90;;;;;;5088139;28;20052;-66
2022/05/19 03:53:54;;;;;;;30.75;24.30;;;17.20;99.90;;;;;;5082932;28;20072;-66
2022/05/19 03:56:21;;;;;;;24.80;21.83;;;17.20;99.90;;;;;;5084478;28;20043;-67
2022/05/19 03:58:48;;;;;;;28.75;23.88;;;17.20;99.90;;;;;;5082477;28;20044;-65
2022/05/19 04:01:14;;;;;;;28.33;24.25;;;17.10;99.90;;;;;;5080726;28;20159;-65
2022/05/19 04:03:40;;;;;;;29.10;24.00;;;17.20;99.90;;;;;;5082248;28;20036;-66
2022/05/19 04:06:06;;;;;;;27.05;23.50;;;17.20;99.90;;;;;;5085225;28;20042;-66
2022/05/19 04:08:31;;;;;;;29.67;25.77;;;17.20;99.90;;;;;;5082988;28;20219;-65
2022/05/19 04:10:57;;;;;;;30.20;24.75;;;17.20;99.90;;;;;;5085177;28;20815;-66
2022/05/19 04:13:23;;;;;;;31.33;26.23;;;17.30;99.90;;;;;;5076703;28;20436;-65
2022/05/19 04:15:48;;;;;;;29.60;24.38;;;17.30;99.90;;;;;;5077503;28;20132;-66
2022/05/19 04:18:14;;;;;;;31.75;26.33;;;17.30;99.90;;;;;;5075656;28;20155;-67
2022/05/19 04:20:41;;;;;;;33.35;26.63;;;17.40;99.90;;;;;;5082327;28;20066;-66
2022/05/19 04:23:06;;;;;;;32.13;27.50;;;17.40;99.90;;;;;;5075680;28;20041;-66
2022/05/19 04:25:32;;;;;;;31.58;26.63;;;17.40;99.90;;;;;;5082172;28;20040;-66
2022/05/19 04:27:58;;;;;;;35.08;28.92;;;17.40;99.90;;;;;;5081408;28;22045;-67
2022/05/19 04:30:24;;;;;;;34.22;30.08;;;17.50;99.90;;;;;;5081492;28;20036;-65
2022/05/19 04:32:50;;;;;;;35.25;28.00;;;17.60;99.90;;;;;;5079829;28;20044;-66
2022/05/19 04:35:16;;;;;;;22.20;18.33;;;17.60;99.90;;;;;;5083048;28;20759;-64
2022/05/19 04:37:42;;;;;;;24.95;22.27;;;17.70;99.90;;;;;;5086409;28;20043;-65
2022/05/19 04:40:08;;;;;;;28.50;24.35;;;17.80;99.90;;;;;;5087700;28;20068;-66
2022/05/19 04:42:34;;;;;;;19.48;16.52;;;17.90;99.90;;;;;;5082305;28;20037;-66
2022/05/19 04:45:00;;;;;;;27.17;22.15;;;18.00;99.90;;;;;;5085837;28;20386;-66
2022/05/19 04:47:26;;;;;;;30.85;27.40;;;18.10;99.90;;;;;;5083666;28;20028;-64
2022/05/19 04:49:51;;;;;;;26.42;22.48;;;18.20;99.90;;;;;;5079827;28;20185;-63
2022/05/19 04:52:17;;;;;;;31.02;24.55;;;18.30;99.90;;;;;;5084220;28;20334;-67
2022/05/19 04:54:43;;;;;;;30.73;25.05;;;18.40;99.90;;;;;;5085462;28;20430;-66
2022/05/19 04:57:10;;;;;;;32.83;26.48;;;18.40;99.90;;;;;;5077862;28;20040;-64
2022/05/19 04:59:38;;;;;;;27.98;23.67;;;18.50;99.90;;;;;;5084259;28;20447;-65
2022/05/19 05:02:04;;;;;;;28.83;25.55;;;18.60;99.90;;;;;;5083921;28;20050;-65
2022/05/19 05:04:30;;;;;;;31.38;27.50;;;18.60;99.90;;;;;;5084431;28;20040;-66
2022/05/19 05:06:56;;;;;;;28.58;24.80;;;18.70;99.90;;;;;;5075296;28;20121;-65
2022/05/19 05:09:22;;;;;;;31.98;25.77;;;18.80;99.90;;;;;;5078787;28;20047;-65
2022/05/19 05:11:48;;;;;;;29.42;24.88;;;18.90;99.90;;;;;;5082526;28;20040;-65
2022/05/19 05:14:14;;;;;;;26.75;23.15;;;18.90;99.90;;;;;;5088460;28;20439;-64
2022/05/19 05:16:40;;;;;;;28.85;23.15;;;19.00;99.90;;;;;;5080774;28;20048;-64
2022/05/19 05:19:05;;;;;;;27.25;23.13;;;19.10;99.90;;;;;;5085563;28;20037;-66
2022/05/19 05:21:31;;;;;;;26.77;20.95;;;19.10;99.90;;;;;;5079221;28;20043;-66
2022/05/19 05:23:57;;;;;;;25.20;20.50;;;19.20;99.90;;;;;;5081671;28;20195;-68
2022/05/19 05:26:22;;;;;;;22.20;19.33;;;19.20;99.90;;;;;;5075653;28;20040;-65
2022/05/19 05:28:48;;;;;;;22.92;18.48;;;19.20;99.90;;;;;;5078068;28;20123;-68
2022/05/19 05:31:13;;;;;;;19.52;17.42;;;19.30;99.90;;;;;;5077202;28;20049;-65
2022/05/19 05:33:39;;;;;;;19.40;15.48;;;19.20;99.90;;;;;;5078795;28;20155;-65
2022/05/19 05:36:05;;;;;;;19.20;12.65;;;19.20;99.90;;;;;;5077707;28;20382;-64
2022/05/19 05:38:31;;;;;;;13.85;9.80;;;19.30;99.90;;;;;;5078458;28;20465;-63
2022/05/19 05:40:58;;;;;;;15.35;10.90;;;19.30;99.90;;;;;;5079286;28;20036;-65
2022/05/19 05:43:24;;;;;;;11.45;8.60;;;19.40;99.90;;;;;;5070841;28;20364;-65
2022/05/19 05:45:50;;;;;;;12.35;7.90;;;19.50;99.90;;;;;;5076610;28;20040;-64
2022/05/19 05:48:17;;;;;;;9.60;6.47;;;19.60;99.90;;;;;;5085762;28;20044;-64
2022/05/19 05:50:43;;;;;;;7.95;5.38;;;19.80;99.90;;;;;;5085652;28;20115;-64
2022/05/19 05:53:08;;;;;;;10.55;5.00;;;19.80;99.90;;;;;;5074628;28;20842;-66
2022/05/19 05:55:36;;;;;;;7.28;4.00;;;19.90;99.90;;;;;;5073240;28;20051;-65
2022/05/19 05:58:06;;;;;;;9.27;4.22;;;19.90;99.90;;;;;;5077648;28;20045;-68
2022/05/19 06:00:32;;;;;;;6.68;3.70;;;20.00;99.90;;;;;;5073075;28;20062;-65
2022/05/19 06:02:58;;;;;;;4.97;3.03;;;20.00;99.90;;;;;;5076631;28;20466;-65
2022/05/19 06:05:24;;;;;;;7.00;3.17;;;20.10;99.90;;;;;;5083855;28;20172;-64
2022/05/19 06:07:49;;;;;;;6.20;2.97;;;20.10;99.90;;;;;;5088056;28;20379;-64
2022/05/19 06:10:15;;;;;;;6.13;3.10;;;20.10;99.90;;;;;;5086766;28;20121;-66
2022/05/19 06:12:41;;;;;;;4.65;2.53;;;20.20;99.90;;;;;;5086726;28;20066;-64
2022/05/19 06:15:10;;;;;;;6.25;3.10;;;20.30;99.90;;;;;;5085515;28;20044;-64
2022/05/19 06:17:35;;;;;;;7.13;3.30;;;20.40;99.90;;;;;;5087391;28;20162;-64
2022/05/19 06:20:01;;;;;;;6.90;3.20;;;20.50;99.90;;;;;;5086276;28;20118;-65
2022/05/19 06:22:26;;;;;;;6.00;2.80;;;20.50;99.90;;;;;;5085689;28;20055;-63
2022/05/19 06:24:52;;;;;;;6.68;2.60;;;20.50;99.90;;;;;;5085153;28;20051;-65
2022/05/19 06:27:18;;;;;;;5.10;2.63;;;20.60;99.90;;;;;;5086595;28;20051;-65
2022/05/19 06:29:43;;;;;;;5.00;2.47;;;20.60;99.90;;;;;;5085369;28;20128;-63
2022/05/19 06:32:10;;;;;;;6.70;2.60;;;20.50;99.90;;;;;;5085691;28;20044;-63
2022/05/19 06:34:36;;;;;;;7.00;2.85;;;20.40;99.90;;;;;;5079106;28;20048;-63
2022/05/19 06:37:02;;;;;;;5.30;2.80;;;20.30;99.90;;;;;;5069459;28;20148;-65
2022/05/19 06:39:29;;;;;;;4.10;2.40;;;20.20;99.90;;;;;;5073068;28;20055;-63
2022/05/19 06:42:00;;;;;;;6.25;2.92;;;20.20;99.90;;;;;;5087936;28;20078;-64
2022/05/19 06:44:38;;;;;;;6.78;3.22;;;20.10;99.90;;;;;;5090509;28;20095;-63
2022/05/19 06:47:16;;;;;;;5.60;2.67;;;20.00;99.90;;;;;;5088827;28;20063;-65
2022/05/19 06:49:48;;;;;;;6.95;3.00;;;19.80;99.90;;;;;;5073949;28;20040;-64
2022/05/19 06:52:19;;;;;;;4.93;2.80;;;19.80;99.90;;;;;;5088083;28;20051;-63
2022/05/19 06:54:51;;;;;;;5.85;3.10;;;19.70;99.90;;;;;;5090294;28;20527;-63
2022/05/19 06:57:17;;;;;;;6.65;3.20;;;19.70;99.90;;;;;;5090210;28;20380;-63
2022/05/19 06:59:43;;;;;;;6.97;3.40;;;19.70;99.90;;;;;;5088666;28;20584;-64
2022/05/19 07:02:09;;;;;;;7.18;3.22;;;19.70;99.90;;;;;;5089015;28;20056;-64
2022/05/19 07:04:36;;;;;;;7.18;3.08;;;19.60;99.90;;;;;;5088845;28;20111;-63
2022/05/19 07:07:04;;;;;;;7.88;3.30;;;19.60;99.90;;;;;;5087017;28;20040;-64
2022/05/19 07:09:31;;;;;;;7.93;3.28;;;19.60;99.90;;;;;;5090516;28;20226;-64
2022/05/19 07:11:57;;;;;;;6.43;3.60;;;19.50;99.90;;;;;;5089002;28;20048;-64
2022/05/19 07:14:23;;;;;;;5.93;3.65;;;19.50;99.90;;;;;;5088803;28;20067;-64
2022/05/19 07:16:49;;;;;;;6.22;3.40;;;19.50;99.90;;;;;;5090729;28;20040;-64
2022/05/19 07:22:04;;;;;;;5.32;3.42;;;19.60;99.90;;;;;;5089812;28;20048;-63
2022/05/19 07:24:29;;;;;;;6.00;3.47;;;19.70;99.90;;;;;;5086703;28;20040;-63
2022/05/19 07:26:56;;;;;;;5.68;3.33;;;19.70;99.90;;;;;;5089761;28;20397;-64
2022/05/19 07:29:22;;;;;;;6.82;3.20;;;19.80;99.90;;;;;;5091778;28;20055;-63
2022/05/19 07:31:49;;;;;;;5.63;3.45;;;19.90;99.90;;;;;;5090188;28;20044;-63
2022/05/19 07:34:18;;;;;;;5.10;3.47;;;19.90;99.90;;;;;;5087167;28;20047;-64
2022/05/19 07:36:43;;;;;;;6.05;3.55;;;20.00;99.90;;;;;;5088105;28;20044;-65
2022/05/19 07:39:11;;;;;;;5.80;3.50;;;20.00;99.90;;;;;;5087963;28;20040;-66
2022/05/19 07:41:36;;;;;;;6.05;3.60;;;20.00;99.90;;;;;;5080759;28;20048;-64
2022/05/19 07:44:02;;;;;;;6.70;3.20;;;20.10;99.90;;;;;;5086461;28;20066;-67
2022/05/19 07:46:28;;;;;;;7.13;3.50;;;20.10;99.90;;;;;;5088382;28;20542;-65
2022/05/19 07:48:55;;;;;;;6.13;3.63;;;20.20;99.90;;;;;;5078252;28;20448;-64
2022/05/19 07:51:26;;;;;;;5.45;3.38;;;20.30;99.90;;;;;;5069108;28;20155;-65
2022/05/19 07:53:53;;;;;;;6.65;3.40;;;20.30;99.90;;;;;;5077484;28;20488;-64
2022/05/19 07:56:18;;;;;;;7.03;3.45;;;20.40;99.90;;;;;;5088358;28;20048;-64
2022/05/19 07:58:46;;;;;;;6.28;3.40;;;20.40;99.90;;;;;;5089108;28;20367;-64
2022/05/19 08:01:13;;;;;;;7.00;3.40;;;20.40;99.90;;;;;;5087956;28;20044;-64
2022/05/19 08:03:38;;;;;;;6.88;3.50;;;20.50;99.90;;;;;;5086895;28;20063;-65
2022/05/19 08:06:07;;;;;;;7.25;3.50;;;20.60;99.90;;;;;;5088297;28;20043;-64
2022/05/19 08:08:34;;;;;;;6.47;3.50;;;20.70;99.90;;;;;;5088491;28;20416;-63
2022/05/19 08:11:00;;;;;;;6.55;3.00;;;20.80;99.90;;;;;;5089682;28;20089;-64
2022/05/19 08:16:10;;;;;;;5.75;2.95;;;21.10;99.90;;;;;;5073915;28;20052;-63
2022/05/19 08:18:35;;;;;;;5.40;2.80;;;21.20;99.90;;;;;;5076391;28;20450;-63
2022/05/19 08:21:05;;;;;;;5.22;2.97;;;21.30;99.90;;;;;;5090656;28;20040;-62
2022/05/19 08:23:33;;;;;;;7.20;3.10;;;21.40;99.90;;;;;;5088142;28;20438;-63
2022/05/19 08:26:00;;;;;;;5.70;3.30;;;21.50;99.90;;;;;;5090261;28;20059;-64
2022/05/19 08:28:31;;;;;;;7.95;3.60;;;21.70;99.90;;;;;;5090270;28;20048;-63
2022/05/19 08:31:17;;;;;;;6.03;3.75;;;21.80;99.90;;;;;;5089870;28;20722;-63
2022/05/19 08:33:45;;;;;;;5.97;3.67;;;21.90;99.90;;;;;;5078425;28;20075;-64
2022/05/19 08:36:11;;;;;;;5.95;3.58;;;22.00;99.90;;;;;;5069643;28;20040;-63
2022/05/19 08:38:38;;;;;;;6.60;4.00;;;22.10;99.90;;;;;;5072770;28;20044;-64
2022/05/19 08:41:20;;;;;;;5.72;3.30;;;22.10;99.90;;;;;;5077708;28;20044;-63
2022/05/19 08:43:57;;;;;;;5.60;3.53;;;22.10;99.90;;;;;;5088309;28;20048;-63
2022/05/19 08:46:32;;;;;;;5.60;3.35;;;22.20;99.90;;;;;;5089835;28;20080;-63
2022/05/19 08:49:06;;;;;;;5.20;3.17;;;22.10;99.90;;;;;;5088177;28;20537;-64
2022/05/19 08:51:39;;;;;;;5.45;3.28;;;22.20;99.90;;;;;;5085435;28;20131;-65
2022/05/19 08:54:08;;;;;;;8.07;3.80;;;22.40;99.90;;;;;;5089852;28;20147;-64
2022/05/19 08:56:47;;;;;;;5.00;2.90;;;22.60;99.90;;;;;;5089819;28;20040;-64
2022/05/19 08:59:43;;;;;;;4.72;2.90;;;22.80;99.90;;;;;;5089158;28;20052;-65
2022/05/19 09:02:13;;;;;;;5.35;3.15;;;22.90;99.90;;;;;;5088127;28;20058;-64
2022/05/19 09:04:51;;;;;;;6.43;3.80;;;23.10;99.90;;;;;;5089025;28;20048;-64
2022/05/19 09:11:01;;;;;;;7.22;3.80;;;23.30;99.90;;;;;;5089078;28;20577;-64
2022/05/19 09:13:47;;;;;;;7.32;3.63;;;23.40;99.90;;;;;;5071239;28;20505;-64
2022/05/19 09:16:18;;;;;;;6.82;3.67;;;23.50;99.90;;;;;;5069864;28;20048;-64
2022/05/19 09:19:07;;;;;;;5.47;3.55;;;23.70;99.90;;;;;;5078876;28;20173;-65
2022/05/19 09:21:35;;;;;;;6.18;3.33;;;23.90;99.90;;;;;;5088881;28;20052;-65
2022/05/19 09:24:01;;;;;;;5.78;2.83;;;24.20;99.90;;;;;;5087820;28;20047;-64
2022/05/19 09:26:52;;;;;;;5.85;3.30;;;24.30;99.90;;;;;;5089375;28;20047;-65
2022/05/19 09:29:40;;;;;;;6.80;3.38;;;24.50;99.90;;;;;;5069947;28;20106;-65
2022/05/19 09:32:24;;;;;;;4.35;2.60;;;24.70;99.90;;;;;;5070906;28;20049;-65
2022/05/19 09:34:52;;;;;;;5.03;3.13;;;25.00;99.90;;;;;;5089222;28;20036;-63
2022/05/19 09:37:36;;;;;;;5.13;2.47;;;25.20;99.90;;;;;;5084069;28;20168;-65
2022/05/19 09:40:11;;;;;;;5.22;2.40;;;25.30;99.90;;;;;;5088855;28;20040;-64
2022/05/19 09:42:59;;;;;;;4.53;2.60;;;25.40;99.90;;;;;;5089604;28;20127;-64
2022/05/19 09:45:28;;;;;;;5.28;2.45;;;25.50;99.90;;;;;;5089054;28;20075;-64
2022/05/19 09:48:01;;;;;;;5.97;2.45;;;25.60;99.90;;;;;;5082136;28;20036;-64
2022/05/19 09:50:36;;;;;;;5.85;2.53;;;25.70;99.90;;;;;;5085194;28;20040;-64
2022/05/19 09:53:07;;;;;;;4.65;2.33;;;25.70;99.90;;;;;;5088864;28;20040;-68
2022/05/19 09:55:39;;;;;;;4.07;2.47;;;25.60;99.60;;;;;;5075635;28;20051;-66
2022/05/19 09:58:13;;;;;;;4.35;2.58;;;25.60;99.00;;;;;;5069243;28;20076;-66
2022/05/19 10:00:53;;;;;;;3.78;2.20;;;25.40;98.70;;;;;;5078093;28;20174;-65
2022/05/19 10:03:34;;;;;;;3.97;2.38;;;25.20;98.40;;;;;;5088825;28;20116;-65
2022/05/19 10:06:06;;;;;;;3.90;1.90;;;25.10;99.00;;;;;;5088409;28;20099;-66
2022/05/19 10:08:39;;;;;;;3.85;2.50;;;25.10;99.40;;;;;;5088198;28;20369;-66
2022/05/19 10:11:14;;;;;;;4.32;2.65;;;25.10;99.70;;;;;;5091436;28;20093;-67
2022/05/19 10:13:48;;;;;;;5.25;3.03;;;25.20;99.90;;;;;;5093364;28;20052;-66
2022/05/19 10:16:41;;;;;;;5.63;3.40;;;25.30;99.90;;;;;;5090760;28;20162;-66
2022/05/19 10:19:28;;;;;;;6.20;3.13;;;25.50;99.90;;;;;;5093543;28;20048;-67
2022/05/19 10:22:00;;;;;;;6.88;3.10;;;25.80;99.90;;;;;;5071913;28;20445;-67
2022/05/19 10:25:07;;;;;;;5.88;3.90;;;26.20;99.70;;;;;;5074017;28;20040;-67
2022/05/19 10:31:04;;;;;;;6.28;3.88;;;26.60;98.80;;;;;;5090601;28;20044;-66
2022/05/19 10:33:51;;;;;;;5.28;3.72;;;26.80;97.90;;;;;;5092296;28;20163;-67
2022/05/19 10:36:28;;;;;;;10.10;3.95;;;26.90;96.60;;;;;;5090892;28;20113;-66
2022/05/19 10:39:21;;;;;;;5.40;3.78;;;27.20;97.20;;;;;;5091611;28;20047;-66
2022/05/19 10:42:13;;;;;;;5.65;2.55;;;27.40;96.20;;;;;;5073589;28;20072;-66
2022/05/19 10:45:00;;;;;;;5.43;2.40;;;27.40;94.80;;;;;;5085556;28;20052;-65
2022/05/19 10:47:47;;;;;;;5.70;2.90;;;27.50;94.30;;;;;;5091361;28;20320;-66
2022/05/19 10:50:32;;;;;;;6.47;2.40;;;27.50;93.70;;;;;;5092183;28;20048;-66
2022/05/19 10:53:16;;;;;;;5.30;2.95;;;27.40;93.60;;;;;;5088905;28;20159;-66
2022/05/19 10:55:51;;;;;;;5.15;2.53;;;27.40;93.70;;;;;;5089986;28;20040;-64
2022/05/19 10:58:47;;;;;;;6.35;3.80;;;27.30;93.60;;;;;;5091217;28;20059;-63
2022/05/19 11:01:49;;;;;;;5.40;3.22;;;27.20;92.90;;;;;;5092945;28;20379;-65
2022/05/19 11:04:42;;;;;;;5.82;3.00;;;27.10;93.70;;;;;;5090217;28;20167;-65
2022/05/19 11:07:14;;;;;;;7.20;3.22;;;27.10;94.00;;;;;;5090931;28;20043;-65
2022/05/19 11:10:11;;;;;;;5.82;3.25;;;27.00;93.50;;;;;;5092580;28;20044;-64
2022/05/19 11:12:46;;;;;;;5.57;3.45;;;27.10;93.10;;;;;;5091089;28;20040;-65
2022/05/19 11:15:41;;;;;;;5.65;3.15;;;27.00;93.30;;;;;;5072516;28;20052;-65
2022/05/19 11:18:25;;;;;;;5.03;2.53;;;27.00;93.00;;;;;;5077015;28;20070;-66
2022/05/19 11:20:58;;;;;;;4.22;2.22;;;27.10;92.00;;;;;;5075532;28;20320;-66
2022/05/19 11:23:34;;;;;;;4.22;2.50;;;27.20;92.30;;;;;;5087425;28;20040;-65
2022/05/19 11:26:24;;;;;;;5.10;2.50;;;27.50;91.90;;;;;;5089902;28;20139;-65
2022/05/19 11:29:05;;;;;;;5.15;2.92;;;27.60;91.50;;;;;;5090928;28;20055;-65
2022/05/19 11:31:57;;;;;;;4.18;2.80;;;27.70;90.40;;;;;;5088569;28;20051;-65
2022/05/19 11:34:46;;;;;;;5.07;3.13;;;27.90;90.10;;;;;;5083158;28;20063;-66
2022/05/19 11:37:29;;;;;;;5.93;3.33;;;27.90;89.50;;;;;;5086852;28;20094;-66
2022/05/19 11:39:57;;;;;;;5.65;3.42;;;27.90;87.50;;;;;;5089205;28;20056;-66
2022/05/19 11:42:33;;;;;;;6.20;3.30;;;27.90;87.90;;;;;;5087506;28;20040;-65
2022/05/19 11:45:02;;;;;;;5.63;3.53;;;27.90;87.30;;;;;;5090438;28;20048;-66
2022/05/19 11:56:06;;;;;;;5.53;3.45;;;27.60;85.00;;;;;;5087460;28;20512;-65
2022/05/19 11:58:35;;;;;;;5.10;3.30;;;27.60;85.40;;;;;;5089750;28;20202;-65
2022/05/19 12:01:22;;;;;;;5.63;3.45;;;27.50;86.20;;;;;;5086995;28;20043;-65
2022/05/19 12:04:04;;;;;;;4.22;2.78;;;27.40;86.90;;;;;;5087445;28;20565;-65
2022/05/19 12:06:34;;;;;;;5.60;3.08;;;27.30;87.50;;;;;;5080062;28;20044;-65
2022/05/19 12:09:02;;;;;;;6.13;3.30;;;27.10;87.70;;;;;;5087450;28;20067;-65
2022/05/19 12:11:40;;;;;;;7.90;3.58;;;26.90;88.40;;;;;;5087551;28;20040;-65
2022/05/19 12:14:18;;;;;;;5.55;3.28;;;26.60;87.70;;;;;;5068425;28;20076;-64
2022/05/19 12:16:52;;;;;;;5.60;3.40;;;26.30;89.30;;;;;;5075493;28;20387;-65
2022/05/19 12:19:38;;;;;;;7.18;3.85;;;26.10;90.10;;;;;;5086167;28;20063;-66
2022/05/19 12:22:32;;;;;;;5.50;3.40;;;25.80;90.40;;;;;;5065858;28;20052;-65
2022/05/19 12:25:00;;;;;;;6.55;3.75;;;25.70;91.20;;;;;;5069040;28;20453;-66
2022/05/19 12:28:00;;;;;;;6.97;3.70;;;25.60;91.80;;;;;;5068110;28;20125;-66
2022/05/19 12:33:52;;;;;;;6.40;3.30;;;25.30;93.50;;;;;;5088473;28;20489;-66
2022/05/19 12:36:30;;;;;;;5.40;2.95;;;25.10;94.50;;;;;;5081927;28;20032;-65
2022/05/19 12:39:16;;;;;;;8.68;3.78;;;25.00;95.90;;;;;;5069160;28;20483;-64
2022/05/19 12:41:48;;;;;;;9.98;3.90;;;24.80;99.00;;;;;;5084826;28;20134;-66
2022/05/19 12:44:32;;;;;;;9.82;3.85;;;24.60;99.90;;;;;;5089058;28;20052;-64
2022/05/19 12:47:20;;;;;;;7.85;4.07;;;24.30;99.90;;;;;;5087233;28;20044;-65
2022/05/19 12:50:02;;;;;;;10.13;4.20;;;24.10;99.90;;;;;;5086302;28;20113;-64
2022/05/19 12:53:05;;;;;;;7.32;4.35;;;23.90;99.90;;;;;;5088037;28;20134;-65
2022/05/19 12:55:37;;;;;;;6.00;3.90;;;23.80;99.90;;;;;;5083567;28;20058;-64
2022/05/19 12:58:37;;;;;;;8.45;5.82;;;23.40;99.90;;;;;;5088576;28;20130;-64
2022/05/19 13:01:26;;;;;;;8.82;6.20;;;22.90;99.90;;;;;;5084036;28;20161;-64
2022/05/19 13:04:06;;;;;;;10.07;6.28;;;22.30;99.90;;;;;;5086984;28;20044;-63
2022/05/19 13:06:33;;;;;;;10.48;6.00;;;21.90;99.90;;;;;;5086719;28;20040;-63
2022/05/19 13:09:04;;;;;;;13.70;5.75;;;21.50;99.90;;;;;;5087041;28;20036;-64
2022/05/19 13:11:33;;;;;;;9.55;5.35;;;21.10;99.90;;;;;;5085987;28;20074;-65
2022/05/19 13:14:11;;;;;;;9.63;4.93;;;20.90;99.90;;;;;;5088701;28;20040;-64
2022/05/19 13:16:41;;;;;;;8.45;4.60;;;20.70;99.90;;;;;;5085460;28;20079;-64
2022/05/19 13:19:17;;;;;;;9.40;4.72;;;20.60;99.90;;;;;;5085670;28;20040;-64
2022/05/19 13:21:55;;;;;;;7.65;3.95;;;20.40;99.90;;;;;;5088066;28;20407;-63
2022/05/19 13:24:24;;;;;;;5.53;3.78;;;20.30;99.90;;;;;;5087523;28;20036;-64
2022/05/19 13:30:20;;;;;;;5.88;2.92;;;20.30;99.90;;;;;;5084137;28;20083;-64
2022/05/19 13:32:27;;;;;;;7.20;3.37;;;20.10;99.90;;;;;;5087288;28;20051;-64
2022/05/19 13:34:54;;;;;;;6.38;3.40;;;20.10;99.90;;;;;;5087269;28;20579;-64